sensor_id;sensor_type;location;lat;lon;timestamp;P1;durP1;ratioP1;P2;durP2;ratioP2
52534;SDS011;38443;53.164;5.802;2022-08-01T00:00:07;7.15;;;4.15;;
52534;SDS011;38443;53.164;5.802;2022-08-01T00:02:36;6.75;;;5.00;;
52534;SDS011;38443;53.164;5.802;2022-08-01T00:05:06;7.88;;;4.70;;
52534;SDS011;38443;53.164;5.802;2022-08-01T00:07:36;7.35;;;4.82;;
52534;SDS011;38443;53.164;5.802;2022-08-01T00:10:05;5.55;;;4.47;;
52534;SDS011;38443;53.164;5.802;2022-08-01T00:12:32;8.77;;;5.03;;
52534;SDS011;38443;53.164;5.802;2022-08-01T00:14:57;7.82;;;5.10;;
52534;SDS011;38443;53.164;5.802;2022-08-01T00:17:23;6.22;;;4.82;;
52534;SDS011;38443;53.164;5.802;2022-08-01T00:19:48;5.90;;;4.35;;
52534;SDS011;38443;53.164;5.802;2022-08-01T00:22:14;6.68;;;4.57;;
52534;SDS011;38443;53.164;5.802;2022-08-01T00:24:39;8.52;;;5.15;;
52534;SDS011;38443;53.164;5.802;2022-08-01T00:27:05;8.45;;;4.35;;
52534;SDS011;38443;53.164;5.802;2022-08-01T00:29:30;6.82;;;4.70;;
52534;SDS011;38443;53.164;5.802;2022-08-01T00:31:55;9.38;;;4.22;;
52534;SDS011;38443;53.164;5.802;2022-08-01T00:34:21;7.65;;;5.18;;
52534;SDS011;38443;53.164;5.802;2022-08-01T00:36:46;8.82;;;5.43;;
52534;SDS011;38443;53.164;5.802;2022-08-01T00:39:11;9.02;;;4.82;;
52534;SDS011;38443;53.164;5.802;2022-08-01T00:41:37;9.88;;;5.07;;
52534;SDS011;38443;53.164;5.802;2022-08-01T00:44:03;7.65;;;5.03;;
52534;SDS011;38443;53.164;5.802;2022-08-01T00:46:30;7.25;;;4.20;;
52534;SDS011;38443;53.164;5.802;2022-08-01T00:48:56;9.35;;;4.43;;
52534;SDS011;38443;53.164;5.802;2022-08-01T00:51:22;7.97;;;4.45;;
52534;SDS011;38443;53.164;5.802;2022-08-01T00:53:48;7.15;;;4.03;;
52534;SDS011;38443;53.164;5.802;2022-08-01T00:56:15;12.18;;;4.05;;
52534;SDS011;38443;53.164;5.802;2022-08-01T00:58:41;7.18;;;4.22;;
52534;SDS011;38443;53.164;5.802;2022-08-01T01:01:06;7.18;;;3.95;;
52534;SDS011;38443;53.164;5.802;2022-08-01T01:03:32;6.97;;;3.55;;
52534;SDS011;38443;53.164;5.802;2022-08-01T01:06:01;10.10;;;4.40;;
52534;SDS011;38443;53.164;5.802;2022-08-01T01:08:39;6.88;;;4.28;;
52534;SDS011;38443;53.164;5.802;2022-08-01T01:11:16;7.32;;;3.88;;
52534;SDS011;38443;53.164;5.802;2022-08-01T01:13:52;6.93;;;3.65;;
52534;SDS011;38443;53.164;5.802;2022-08-01T01:16:22;6.53;;;3.90;;
52534;SDS011;38443;53.164;5.802;2022-08-01T01:18:51;11.13;;;4.00;;
52534;SDS011;38443;53.164;5.802;2022-08-01T01:29:54;8.35;;;3.33;;
52534;SDS011;38443;53.164;5.802;2022-08-01T01:32:41;6.88;;;3.47;;
52534;SDS011;38443;53.164;5.802;2022-08-01T01:35:18;10.95;;;4.35;;
52534;SDS011;38443;53.164;5.802;2022-08-01T01:37:48;13.13;;;4.38;;
52534;SDS011;38443;53.164;5.802;2022-08-01T01:40:18;8.13;;;4.22;;
52534;SDS011;38443;53.164;5.802;2022-08-01T01:42:45;9.95;;;4.22;;
52534;SDS011;38443;53.164;5.802;2022-08-01T01:45:12;7.97;;;4.18;;
52534;SDS011;38443;53.164;5.802;2022-08-01T01:47:39;10.88;;;4.10;;
52534;SDS011;38443;53.164;5.802;2022-08-01T01:50:06;15.15;;;4.43;;
52534;SDS011;38443;53.164;5.802;2022-08-01T01:52:35;10.02;;;3.72;;
52534;SDS011;38443;53.164;5.802;2022-08-01T01:55:05;7.05;;;3.80;;
52534;SDS011;38443;53.164;5.802;2022-08-01T01:57:35;9.95;;;4.35;;
52534;SDS011;38443;53.164;5.802;2022-08-01T02:02:43;10.10;;;4.60;;
52534;SDS011;38443;53.164;5.802;2022-08-01T02:05:11;10.98;;;4.28;;
52534;SDS011;38443;53.164;5.802;2022-08-01T02:07:37;13.40;;;4.40;;
52534;SDS011;38443;53.164;5.802;2022-08-01T02:10:04;10.32;;;4.78;;
52534;SDS011;38443;53.164;5.802;2022-08-01T02:12:32;9.80;;;4.78;;
52534;SDS011;38443;53.164;5.802;2022-08-01T02:15:01;12.85;;;4.55;;
52534;SDS011;38443;53.164;5.802;2022-08-01T02:17:28;13.18;;;4.82;;
52534;SDS011;38443;53.164;5.802;2022-08-01T02:19:55;11.50;;;4.93;;
52534;SDS011;38443;53.164;5.802;2022-08-01T02:22:32;14.00;;;4.43;;
52534;SDS011;38443;53.164;5.802;2022-08-01T02:26:02;11.35;;;4.70;;
52534;SDS011;38443;53.164;5.802;2022-08-01T02:30:35;14.38;;;4.90;;
52534;SDS011;38443;53.164;5.802;2022-08-01T02:33:05;7.97;;;4.25;;
52534;SDS011;38443;53.164;5.802;2022-08-01T02:35:38;11.70;;;4.50;;
52534;SDS011;38443;53.164;5.802;2022-08-01T02:38:06;7.22;;;4.07;;
52534;SDS011;38443;53.164;5.802;2022-08-01T02:40:36;9.93;;;4.07;;
52534;SDS011;38443;53.164;5.802;2022-08-01T02:43:05;10.05;;;4.47;;
52534;SDS011;38443;53.164;5.802;2022-08-01T02:45:31;10.13;;;4.35;;
52534;SDS011;38443;53.164;5.802;2022-08-01T02:48:10;10.85;;;4.15;;
52534;SDS011;38443;53.164;5.802;2022-08-01T02:50:38;9.48;;;4.38;;
52534;SDS011;38443;53.164;5.802;2022-08-01T02:53:07;7.95;;;4.10;;
52534;SDS011;38443;53.164;5.802;2022-08-01T02:55:35;11.32;;;5.57;;
52534;SDS011;38443;53.164;5.802;2022-08-01T02:58:03;11.52;;;4.43;;
52534;SDS011;38443;53.164;5.802;2022-08-01T03:00:30;8.55;;;4.57;;
52534;SDS011;38443;53.164;5.802;2022-08-01T03:02:57;10.02;;;4.20;;
52534;SDS011;38443;53.164;5.802;2022-08-01T03:05:25;10.65;;;3.83;;
52534;SDS011;38443;53.164;5.802;2022-08-01T03:07:52;13.70;;;4.95;;
52534;SDS011;38443;53.164;5.802;2022-08-01T03:10:20;10.32;;;4.55;;
52534;SDS011;38443;53.164;5.802;2022-08-01T03:12:47;11.02;;;5.15;;
52534;SDS011;38443;53.164;5.802;2022-08-01T03:15:15;11.18;;;4.68;;
52534;SDS011;38443;53.164;5.802;2022-08-01T03:17:42;14.23;;;4.35;;
52534;SDS011;38443;53.164;5.802;2022-08-01T03:20:11;9.32;;;4.13;;
52534;SDS011;38443;53.164;5.802;2022-08-01T03:22:39;12.65;;;3.92;;
52534;SDS011;38443;53.164;5.802;2022-08-01T03:25:07;9.77;;;4.13;;
52534;SDS011;38443;53.164;5.802;2022-08-01T03:27:33;16.35;;;4.55;;
52534;SDS011;38443;53.164;5.802;2022-08-01T03:30:02;10.77;;;3.70;;
52534;SDS011;38443;53.164;5.802;2022-08-01T03:32:29;13.93;;;4.95;;
52534;SDS011;38443;53.164;5.802;2022-08-01T03:34:55;11.10;;;4.07;;
52534;SDS011;38443;53.164;5.802;2022-08-01T03:37:26;10.25;;;4.15;;
52534;SDS011;38443;53.164;5.802;2022-08-01T03:40:02;9.30;;;4.32;;
52534;SDS011;38443;53.164;5.802;2022-08-01T03:42:35;13.93;;;4.60;;
52534;SDS011;38443;53.164;5.802;2022-08-01T03:45:07;12.02;;;5.15;;
52534;SDS011;38443;53.164;5.802;2022-08-01T03:47:34;14.68;;;4.70;;
52534;SDS011;38443;53.164;5.802;2022-08-01T03:50:02;11.30;;;4.30;;
52534;SDS011;38443;53.164;5.802;2022-08-01T03:52:29;11.60;;;3.95;;
52534;SDS011;38443;53.164;5.802;2022-08-01T03:54:58;11.10;;;4.10;;
52534;SDS011;38443;53.164;5.802;2022-08-01T03:57:27;11.00;;;4.03;;
52534;SDS011;38443;53.164;5.802;2022-08-01T03:59:55;16.13;;;4.50;;
52534;SDS011;38443;53.164;5.802;2022-08-01T04:02:22;14.88;;;4.07;;
52534;SDS011;38443;53.164;5.802;2022-08-01T04:04:48;11.85;;;3.90;;
52534;SDS011;38443;53.164;5.802;2022-08-01T04:07:27;16.23;;;4.50;;
52534;SDS011;38443;53.164;5.802;2022-08-01T04:09:54;17.65;;;4.45;;
52534;SDS011;38443;53.164;5.802;2022-08-01T04:12:20;12.80;;;4.13;;
52534;SDS011;38443;53.164;5.802;2022-08-01T04:14:46;13.30;;;4.07;;
52534;SDS011;38443;53.164;5.802;2022-08-01T04:17:12;12.65;;;4.18;;
52534;SDS011;38443;53.164;5.802;2022-08-01T04:19:38;10.23;;;4.32;;
52534;SDS011;38443;53.164;5.802;2022-08-01T04:22:04;7.25;;;3.55;;
52534;SDS011;38443;53.164;5.802;2022-08-01T04:24:30;17.50;;;4.55;;
52534;SDS011;38443;53.164;5.802;2022-08-01T04:26:58;14.00;;;4.28;;
52534;SDS011;38443;53.164;5.802;2022-08-01T04:29:26;8.68;;;3.50;;
52534;SDS011;38443;53.164;5.802;2022-08-01T04:31:54;10.13;;;3.80;;
52534;SDS011;38443;53.164;5.802;2022-08-01T04:34:22;12.63;;;4.38;;
52534;SDS011;38443;53.164;5.802;2022-08-01T04:36:51;14.27;;;4.43;;
52534;SDS011;38443;53.164;5.802;2022-08-01T04:39:19;8.77;;;4.10;;
52534;SDS011;38443;53.164;5.802;2022-08-01T04:41:48;12.15;;;4.13;;
52534;SDS011;38443;53.164;5.802;2022-08-01T04:44:15;10.38;;;4.13;;
52534;SDS011;38443;53.164;5.802;2022-08-01T04:46:41;8.98;;;3.05;;
52534;SDS011;38443;53.164;5.802;2022-08-01T04:49:08;12.57;;;5.15;;
52534;SDS011;38443;53.164;5.802;2022-08-01T04:51:36;10.57;;;4.95;;
52534;SDS011;38443;53.164;5.802;2022-08-01T04:54:14;12.60;;;4.90;;
52534;SDS011;38443;53.164;5.802;2022-08-01T04:56:39;13.05;;;4.03;;
52534;SDS011;38443;53.164;5.802;2022-08-01T04:59:04;13.88;;;4.22;;
52534;SDS011;38443;53.164;5.802;2022-08-01T05:01:49;12.43;;;3.78;;
52534;SDS011;38443;53.164;5.802;2022-08-01T05:04:15;11.90;;;3.70;;
52534;SDS011;38443;53.164;5.802;2022-08-01T05:06:40;12.15;;;4.00;;
52534;SDS011;38443;53.164;5.802;2022-08-01T05:09:06;12.50;;;3.88;;
52534;SDS011;38443;53.164;5.802;2022-08-01T05:11:31;15.85;;;4.10;;
52534;SDS011;38443;53.164;5.802;2022-08-01T05:13:56;11.30;;;3.95;;
52534;SDS011;38443;53.164;5.802;2022-08-01T05:16:22;14.30;;;3.60;;
52534;SDS011;38443;53.164;5.802;2022-08-01T05:18:47;17.52;;;4.57;;
52534;SDS011;38443;53.164;5.802;2022-08-01T05:21:12;12.30;;;4.43;;
52534;SDS011;38443;53.164;5.802;2022-08-01T05:23:38;12.30;;;4.43;;
52534;SDS011;38443;53.164;5.802;2022-08-01T05:26:03;12.38;;;4.10;;
52534;SDS011;38443;53.164;5.802;2022-08-01T05:28:29;16.38;;;4.75;;
52534;SDS011;38443;53.164;5.802;2022-08-01T05:30:55;19.50;;;5.80;;
52534;SDS011;38443;53.164;5.802;2022-08-01T05:33:21;11.45;;;4.97;;
52534;SDS011;38443;53.164;5.802;2022-08-01T05:35:47;11.95;;;4.00;;
52534;SDS011;38443;53.164;5.802;2022-08-01T05:38:12;15.35;;;4.68;;
52534;SDS011;38443;53.164;5.802;2022-08-01T05:40:37;10.65;;;5.05;;
52534;SDS011;38443;53.164;5.802;2022-08-01T05:43:03;15.32;;;5.00;;
52534;SDS011;38443;53.164;5.802;2022-08-01T05:45:28;16.45;;;4.10;;
52534;SDS011;38443;53.164;5.802;2022-08-01T05:47:53;14.77;;;4.10;;
52534;SDS011;38443;53.164;5.802;2022-08-01T05:50:19;15.13;;;4.38;;
52534;SDS011;38443;53.164;5.802;2022-08-01T05:52:44;13.25;;;4.57;;
52534;SDS011;38443;53.164;5.802;2022-08-01T05:55:09;9.65;;;4.10;;
52534;SDS011;38443;53.164;5.802;2022-08-01T05:57:35;12.07;;;4.40;;
52534;SDS011;38443;53.164;5.802;2022-08-01T06:00:00;12.05;;;3.70;;
52534;SDS011;38443;53.164;5.802;2022-08-01T06:02:26;15.52;;;4.15;;
52534;SDS011;38443;53.164;5.802;2022-08-01T06:04:52;13.10;;;4.30;;
52534;SDS011;38443;53.164;5.802;2022-08-01T06:07:18;13.93;;;4.00;;
52534;SDS011;38443;53.164;5.802;2022-08-01T06:09:43;12.10;;;3.58;;
52534;SDS011;38443;53.164;5.802;2022-08-01T06:12:08;8.77;;;3.58;;
52534;SDS011;38443;53.164;5.802;2022-08-01T06:14:34;9.80;;;3.65;;
52534;SDS011;38443;53.164;5.802;2022-08-01T06:16:59;11.20;;;3.53;;
52534;SDS011;38443;53.164;5.802;2022-08-01T06:19:24;9.20;;;3.47;;
52534;SDS011;38443;53.164;5.802;2022-08-01T06:21:52;15.60;;;3.75;;
52534;SDS011;38443;53.164;5.802;2022-08-01T06:24:18;9.70;;;3.28;;
52534;SDS011;38443;53.164;5.802;2022-08-01T06:26:43;9.32;;;3.40;;
52534;SDS011;38443;53.164;5.802;2022-08-01T06:29:08;9.73;;;3.90;;
52534;SDS011;38443;53.164;5.802;2022-08-01T06:31:34;12.27;;;3.70;;
52534;SDS011;38443;53.164;5.802;2022-08-01T06:33:59;8.95;;;3.83;;
52534;SDS011;38443;53.164;5.802;2022-08-01T06:36:24;13.18;;;3.28;;
52534;SDS011;38443;53.164;5.802;2022-08-01T06:38:50;9.07;;;3.92;;
52534;SDS011;38443;53.164;5.802;2022-08-01T06:41:16;7.05;;;3.13;;
52534;SDS011;38443;53.164;5.802;2022-08-01T06:43:41;11.38;;;3.22;;
52534;SDS011;38443;53.164;5.802;2022-08-01T06:46:07;11.77;;;3.42;;
52534;SDS011;38443;53.164;5.802;2022-08-01T06:48:32;12.15;;;2.97;;
52534;SDS011;38443;53.164;5.802;2022-08-01T06:50:57;9.85;;;3.35;;
52534;SDS011;38443;53.164;5.802;2022-08-01T06:53:38;11.00;;;3.10;;
52534;SDS011;38443;53.164;5.802;2022-08-01T06:56:04;10.32;;;3.67;;
52534;SDS011;38443;53.164;5.802;2022-08-01T06:58:31;10.65;;;3.25;;
52534;SDS011;38443;53.164;5.802;2022-08-01T07:00:57;8.10;;;3.28;;
52534;SDS011;38443;53.164;5.802;2022-08-01T07:03:22;8.75;;;3.47;;
52534;SDS011;38443;53.164;5.802;2022-08-01T07:05:48;13.13;;;3.40;;
52534;SDS011;38443;53.164;5.802;2022-08-01T07:08:13;4.30;;;2.42;;
52534;SDS011;38443;53.164;5.802;2022-08-01T07:10:38;15.80;;;3.08;;
52534;SDS011;38443;53.164;5.802;2022-08-01T07:13:04;8.15;;;2.53;;
52534;SDS011;38443;53.164;5.802;2022-08-01T07:15:29;6.43;;;2.90;;
52534;SDS011;38443;53.164;5.802;2022-08-01T07:17:54;9.13;;;2.70;;
52534;SDS011;38443;53.164;5.802;2022-08-01T07:20:21;9.38;;;2.90;;
52534;SDS011;38443;53.164;5.802;2022-08-01T07:22:46;8.63;;;2.80;;
52534;SDS011;38443;53.164;5.802;2022-08-01T07:25:12;5.32;;;2.30;;
52534;SDS011;38443;53.164;5.802;2022-08-01T07:27:37;8.15;;;3.25;;
52534;SDS011;38443;53.164;5.802;2022-08-01T07:30:03;7.07;;;2.85;;
52534;SDS011;38443;53.164;5.802;2022-08-01T07:32:29;5.53;;;2.28;;
52534;SDS011;38443;53.164;5.802;2022-08-01T07:34:55;9.38;;;3.22;;
52534;SDS011;38443;53.164;5.802;2022-08-01T07:37:21;9.35;;;2.90;;
52534;SDS011;38443;53.164;5.802;2022-08-01T07:39:47;7.95;;;3.08;;
52534;SDS011;38443;53.164;5.802;2022-08-01T07:42:12;7.00;;;2.80;;
52534;SDS011;38443;53.164;5.802;2022-08-01T07:44:37;11.10;;;2.88;;
52534;SDS011;38443;53.164;5.802;2022-08-01T07:47:04;5.13;;;2.70;;
52534;SDS011;38443;53.164;5.802;2022-08-01T07:49:29;7.75;;;3.17;;
52534;SDS011;38443;53.164;5.802;2022-08-01T07:51:55;12.93;;;3.13;;
52534;SDS011;38443;53.164;5.802;2022-08-01T07:54:20;8.13;;;2.95;;
52534;SDS011;38443;53.164;5.802;2022-08-01T07:56:48;8.23;;;3.08;;
52534;SDS011;38443;53.164;5.802;2022-08-01T07:59:14;11.32;;;2.83;;
52534;SDS011;38443;53.164;5.802;2022-08-01T08:01:39;6.45;;;2.75;;
52534;SDS011;38443;53.164;5.802;2022-08-01T08:04:05;7.68;;;3.03;;
52534;SDS011;38443;53.164;5.802;2022-08-01T08:06:30;9.63;;;2.60;;
52534;SDS011;38443;53.164;5.802;2022-08-01T08:08:55;5.32;;;2.28;;
52534;SDS011;38443;53.164;5.802;2022-08-01T08:11:21;8.13;;;2.90;;
52534;SDS011;38443;53.164;5.802;2022-08-01T08:13:46;6.90;;;2.40;;
52534;SDS011;38443;53.164;5.802;2022-08-01T08:16:12;7.28;;;2.25;;
52534;SDS011;38443;53.164;5.802;2022-08-01T08:18:38;7.22;;;2.38;;
52534;SDS011;38443;53.164;5.802;2022-08-01T08:21:03;6.60;;;2.65;;
52534;SDS011;38443;53.164;5.802;2022-08-01T08:23:29;8.45;;;3.00;;
52534;SDS011;38443;53.164;5.802;2022-08-01T08:26:13;7.03;;;2.72;;
52534;SDS011;38443;53.164;5.802;2022-08-01T08:28:38;12.40;;;2.63;;
52534;SDS011;38443;53.164;5.802;2022-08-01T08:31:04;7.57;;;2.00;;
52534;SDS011;38443;53.164;5.802;2022-08-01T08:33:29;5.15;;;3.25;;
52534;SDS011;38443;53.164;5.802;2022-08-01T08:35:55;5.82;;;2.40;;
52534;SDS011;38443;53.164;5.802;2022-08-01T08:38:20;12.20;;;3.50;;
52534;SDS011;38443;53.164;5.802;2022-08-01T08:40:45;6.47;;;2.38;;
52534;SDS011;38443;53.164;5.802;2022-08-01T08:43:11;7.15;;;2.55;;
52534;SDS011;38443;53.164;5.802;2022-08-01T08:45:36;5.00;;;2.10;;
52534;SDS011;38443;53.164;5.802;2022-08-01T08:48:02;8.85;;;2.45;;
52534;SDS011;38443;53.164;5.802;2022-08-01T08:50:30;8.32;;;2.70;;
52534;SDS011;38443;53.164;5.802;2022-08-01T08:52:56;5.45;;;2.50;;
52534;SDS011;38443;53.164;5.802;2022-08-01T08:55:26;6.50;;;2.25;;
52534;SDS011;38443;53.164;5.802;2022-08-01T08:57:53;8.55;;;2.25;;
52534;SDS011;38443;53.164;5.802;2022-08-01T09:00:19;7.70;;;2.70;;
52534;SDS011;38443;53.164;5.802;2022-08-01T09:02:46;5.75;;;2.25;;
52534;SDS011;38443;53.164;5.802;2022-08-01T09:05:13;6.85;;;2.33;;
52534;SDS011;38443;53.164;5.802;2022-08-01T09:07:40;6.05;;;2.20;;
52534;SDS011;38443;53.164;5.802;2022-08-01T09:10:05;9.50;;;2.30;;
52534;SDS011;38443;53.164;5.802;2022-08-01T09:12:32;6.30;;;2.35;;
52534;SDS011;38443;53.164;5.802;2022-08-01T09:14:58;7.13;;;2.38;;
52534;SDS011;38443;53.164;5.802;2022-08-01T09:17:23;5.68;;;2.03;;
52534;SDS011;38443;53.164;5.802;2022-08-01T09:19:49;9.85;;;2.80;;
52534;SDS011;38443;53.164;5.802;2022-08-01T09:22:19;5.90;;;2.53;;
52534;SDS011;38443;53.164;5.802;2022-08-01T09:25:04;8.75;;;2.35;;
52534;SDS011;38443;53.164;5.802;2022-08-01T09:27:34;8.48;;;2.63;;
52534;SDS011;38443;53.164;5.802;2022-08-01T09:30:33;8.00;;;2.50;;
52534;SDS011;38443;53.164;5.802;2022-08-01T09:32:52;8.10;;;2.30;;
52534;SDS011;38443;53.164;5.802;2022-08-01T09:35:31;5.97;;;2.67;;
52534;SDS011;38443;53.164;5.802;2022-08-01T09:38:15;6.35;;;2.05;;
52534;SDS011;38443;53.164;5.802;2022-08-01T09:40:45;7.53;;;2.10;;
52534;SDS011;38443;53.164;5.802;2022-08-01T09:43:12;5.15;;;1.95;;
52534;SDS011;38443;53.164;5.802;2022-08-01T09:45:37;9.07;;;2.38;;
52534;SDS011;38443;53.164;5.802;2022-08-01T09:48:09;4.25;;;1.90;;
52534;SDS011;38443;53.164;5.802;2022-08-01T09:50:53;6.82;;;2.10;;
52534;SDS011;38443;53.164;5.802;2022-08-01T09:53:19;10.30;;;2.13;;
52534;SDS011;38443;53.164;5.802;2022-08-01T09:55:45;7.60;;;2.50;;
52534;SDS011;38443;53.164;5.802;2022-08-01T09:58:10;7.30;;;1.85;;
52534;SDS011;38443;53.164;5.802;2022-08-01T10:00:37;7.57;;;2.33;;
52534;SDS011;38443;53.164;5.802;2022-08-01T10:03:23;7.13;;;1.98;;
52534;SDS011;38443;53.164;5.802;2022-08-01T10:05:50;5.22;;;2.10;;
52534;SDS011;38443;53.164;5.802;2022-08-01T10:08:18;4.57;;;1.70;;
52534;SDS011;38443;53.164;5.802;2022-08-01T10:11:04;5.57;;;2.13;;
52534;SDS011;38443;53.164;5.802;2022-08-01T10:13:37;4.90;;;2.22;;
52534;SDS011;38443;53.164;5.802;2022-08-01T10:16:02;9.43;;;2.58;;
52534;SDS011;38443;53.164;5.802;2022-08-01T10:18:30;5.95;;;1.85;;
52534;SDS011;38443;53.164;5.802;2022-08-01T10:21:02;5.85;;;2.05;;
52534;SDS011;38443;53.164;5.802;2022-08-01T10:23:30;12.48;;;2.75;;
52534;SDS011;38443;53.164;5.802;2022-08-01T10:26:00;4.15;;;2.40;;
52534;SDS011;38443;53.164;5.802;2022-08-01T10:28:26;5.78;;;2.03;;
52534;SDS011;38443;53.164;5.802;2022-08-01T10:30:56;6.60;;;2.47;;
52534;SDS011;38443;53.164;5.802;2022-08-01T10:33:22;6.35;;;2.20;;
52534;SDS011;38443;53.164;5.802;2022-08-01T10:35:48;10.63;;;2.42;;
52534;SDS011;38443;53.164;5.802;2022-08-01T10:38:17;5.40;;;2.03;;
52534;SDS011;38443;53.164;5.802;2022-08-01T10:40:43;4.78;;;2.17;;
52534;SDS011;38443;53.164;5.802;2022-08-01T10:43:09;5.82;;;1.75;;
52534;SDS011;38443;53.164;5.802;2022-08-01T10:45:35;4.68;;;1.63;;
52534;SDS011;38443;53.164;5.802;2022-08-01T10:50:34;8.65;;;1.88;;
52534;SDS011;38443;53.164;5.802;2022-08-01T10:53:13;5.18;;;1.80;;
52534;SDS011;38443;53.164;5.802;2022-08-01T10:55:56;4.13;;;1.55;;
52534;SDS011;38443;53.164;5.802;2022-08-01T11:03:40;4.90;;;1.95;;
52534;SDS011;38443;53.164;5.802;2022-08-01T11:06:14;4.32;;;1.90;;
52534;SDS011;38443;53.164;5.802;2022-08-01T11:08:41;3.85;;;1.60;;
52534;SDS011;38443;53.164;5.802;2022-08-01T11:11:15;5.57;;;2.25;;
52534;SDS011;38443;53.164;5.802;2022-08-01T11:16:38;4.82;;;1.80;;
52534;SDS011;38443;53.164;5.802;2022-08-01T11:19:05;5.07;;;2.08;;
52534;SDS011;38443;53.164;5.802;2022-08-01T11:27:15;5.85;;;2.00;;
52534;SDS011;38443;53.164;5.802;2022-08-01T11:32:33;5.30;;;1.80;;
52534;SDS011;38443;53.164;5.802;2022-08-01T11:34:59;6.03;;;2.35;;
52534;SDS011;38443;53.164;5.802;2022-08-01T11:37:25;7.72;;;2.00;;
52534;SDS011;38443;53.164;5.802;2022-08-01T11:42:45;4.63;;;2.00;;
52534;SDS011;38443;53.164;5.802;2022-08-01T11:45:11;5.65;;;1.95;;
52534;SDS011;38443;53.164;5.802;2022-08-01T11:53:05;5.18;;;2.00;;
52534;SDS011;38443;53.164;5.802;2022-08-01T11:55:32;3.00;;;1.60;;
52534;SDS011;38443;53.164;5.802;2022-08-01T11:58:06;5.97;;;1.70;;
52534;SDS011;38443;53.164;5.802;2022-08-01T12:00:33;5.70;;;2.05;;
52534;SDS011;38443;53.164;5.802;2022-08-01T12:03:00;5.15;;;1.70;;
52534;SDS011;38443;53.164;5.802;2022-08-01T12:05:27;5.10;;;2.22;;
52534;SDS011;38443;53.164;5.802;2022-08-01T12:07:55;6.00;;;1.90;;
52534;SDS011;38443;53.164;5.802;2022-08-01T12:10:25;5.22;;;2.20;;
52534;SDS011;38443;53.164;5.802;2022-08-01T12:15:24;5.70;;;1.85;;
52534;SDS011;38443;53.164;5.802;2022-08-01T12:17:56;6.55;;;2.55;;
52534;SDS011;38443;53.164;5.802;2022-08-01T12:20:23;3.45;;;1.80;;
52534;SDS011;38443;53.164;5.802;2022-08-01T12:22:53;4.80;;;1.83;;
52534;SDS011;38443;53.164;5.802;2022-08-01T12:25:20;5.97;;;1.63;;
52534;SDS011;38443;53.164;5.802;2022-08-01T12:27:46;5.78;;;2.10;;
52534;SDS011;38443;53.164;5.802;2022-08-01T12:30:16;4.35;;;2.00;;
52534;SDS011;38443;53.164;5.802;2022-08-01T12:32:45;6.97;;;1.80;;
52534;SDS011;38443;53.164;5.802;2022-08-01T12:35:12;3.17;;;1.90;;
52534;SDS011;38443;53.164;5.802;2022-08-01T12:37:41;5.57;;;2.22;;
52534;SDS011;38443;53.164;5.802;2022-08-01T12:40:19;7.35;;;1.88;;
52534;SDS011;38443;53.164;5.802;2022-08-01T12:45:18;4.70;;;1.92;;
52534;SDS011;38443;53.164;5.802;2022-08-01T12:47:46;4.32;;;1.80;;
52534;SDS011;38443;53.164;5.802;2022-08-01T12:50:14;3.17;;;1.45;;
52534;SDS011;38443;53.164;5.802;2022-08-01T12:52:41;7.95;;;2.00;;
52534;SDS011;38443;53.164;5.802;2022-08-01T12:57:35;4.47;;;1.92;;
52534;SDS011;38443;53.164;5.802;2022-08-01T13:00:08;4.85;;;1.70;;
52534;SDS011;38443;53.164;5.802;2022-08-01T13:02:39;6.95;;;2.05;;
52534;SDS011;38443;53.164;5.802;2022-08-01T13:05:06;7.63;;;1.80;;
52534;SDS011;38443;53.164;5.802;2022-08-01T13:07:38;3.22;;;1.80;;
52534;SDS011;38443;53.164;5.802;2022-08-01T13:10:06;6.20;;;1.80;;
52534;SDS011;38443;53.164;5.802;2022-08-01T13:12:32;2.72;;;1.70;;
52534;SDS011;38443;53.164;5.802;2022-08-01T13:14:58;2.78;;;1.80;;
52534;SDS011;38443;53.164;5.802;2022-08-01T13:17:33;3.58;;;1.90;;
52534;SDS011;38443;53.164;5.802;2022-08-01T13:20:04;5.53;;;1.98;;
52534;SDS011;38443;53.164;5.802;2022-08-01T13:22:33;5.18;;;1.95;;
52534;SDS011;38443;53.164;5.802;2022-08-01T13:25:09;3.90;;;1.90;;
52534;SDS011;38443;53.164;5.802;2022-08-01T13:27:38;4.15;;;1.80;;
52534;SDS011;38443;53.164;5.802;2022-08-01T13:30:13;6.00;;;2.30;;
52534;SDS011;38443;53.164;5.802;2022-08-01T13:32:44;4.53;;;2.33;;
52534;SDS011;38443;53.164;5.802;2022-08-01T13:35:30;4.03;;;1.70;;
52534;SDS011;38443;53.164;5.802;2022-08-01T13:37:55;6.20;;;1.67;;
52534;SDS011;38443;53.164;5.802;2022-08-01T13:40:25;5.13;;;1.70;;
52534;SDS011;38443;53.164;5.802;2022-08-01T13:42:52;3.67;;;1.70;;
52534;SDS011;38443;53.164;5.802;2022-08-01T13:45:19;3.45;;;1.50;;
52534;SDS011;38443;53.164;5.802;2022-08-01T13:47:45;7.72;;;1.77;;
52534;SDS011;38443;53.164;5.802;2022-08-01T13:50:10;3.10;;;1.45;;
52534;SDS011;38443;53.164;5.802;2022-08-01T13:52:35;3.92;;;1.83;;
52534;SDS011;38443;53.164;5.802;2022-08-01T13:55:01;4.97;;;1.70;;
52534;SDS011;38443;53.164;5.802;2022-08-01T13:57:27;3.25;;;1.88;;
52534;SDS011;38443;53.164;5.802;2022-08-01T13:59:53;9.27;;;2.05;;
52534;SDS011;38443;53.164;5.802;2022-08-01T14:02:19;5.45;;;2.17;;
52534;SDS011;38443;53.164;5.802;2022-08-01T14:04:45;4.05;;;1.75;;
52534;SDS011;38443;53.164;5.802;2022-08-01T14:07:10;3.17;;;1.60;;
52534;SDS011;38443;53.164;5.802;2022-08-01T14:09:35;4.20;;;1.88;;
52534;SDS011;38443;53.164;5.802;2022-08-01T14:12:01;5.05;;;1.95;;
52534;SDS011;38443;53.164;5.802;2022-08-01T14:14:26;5.55;;;2.35;;
52534;SDS011;38443;53.164;5.802;2022-08-01T14:16:52;5.13;;;2.03;;
52534;SDS011;38443;53.164;5.802;2022-08-01T14:19:17;4.93;;;1.85;;
52534;SDS011;38443;53.164;5.802;2022-08-01T14:21:43;5.15;;;1.98;;
52534;SDS011;38443;53.164;5.802;2022-08-01T14:24:08;5.65;;;1.80;;
52534;SDS011;38443;53.164;5.802;2022-08-01T14:26:34;3.75;;;1.60;;
52534;SDS011;38443;53.164;5.802;2022-08-01T14:29:00;5.80;;;1.92;;
52534;SDS011;38443;53.164;5.802;2022-08-01T14:31:25;5.90;;;2.05;;
52534;SDS011;38443;53.164;5.802;2022-08-01T14:33:51;3.42;;;1.90;;
52534;SDS011;38443;53.164;5.802;2022-08-01T14:36:16;5.55;;;1.60;;
52534;SDS011;38443;53.164;5.802;2022-08-01T14:38:42;4.07;;;1.80;;
52534;SDS011;38443;53.164;5.802;2022-08-01T14:41:07;3.42;;;1.55;;
52534;SDS011;38443;53.164;5.802;2022-08-01T14:43:33;6.88;;;2.22;;
52534;SDS011;38443;53.164;5.802;2022-08-01T14:45:58;5.75;;;2.08;;
52534;SDS011;38443;53.164;5.802;2022-08-01T14:48:24;4.57;;;1.70;;
52534;SDS011;38443;53.164;5.802;2022-08-01T14:50:50;4.18;;;2.20;;
52534;SDS011;38443;53.164;5.802;2022-08-01T14:53:15;5.70;;;1.90;;
52534;SDS011;38443;53.164;5.802;2022-08-01T14:55:40;4.93;;;1.92;;
52534;SDS011;38443;53.164;5.802;2022-08-01T14:58:06;2.70;;;1.65;;
52534;SDS011;38443;53.164;5.802;2022-08-01T15:00:31;6.85;;;2.15;;
52534;SDS011;38443;53.164;5.802;2022-08-01T15:02:56;5.97;;;2.10;;
52534;SDS011;38443;53.164;5.802;2022-08-01T15:05:22;4.85;;;2.00;;
52534;SDS011;38443;53.164;5.802;2022-08-01T15:07:47;6.03;;;2.00;;
52534;SDS011;38443;53.164;5.802;2022-08-01T15:10:12;3.92;;;1.65;;
52534;SDS011;38443;53.164;5.802;2022-08-01T15:12:38;6.97;;;1.92;;
52534;SDS011;38443;53.164;5.802;2022-08-01T15:15:04;6.57;;;1.95;;
52534;SDS011;38443;53.164;5.802;2022-08-01T15:17:31;4.07;;;1.77;;
52534;SDS011;38443;53.164;5.802;2022-08-01T15:20:04;3.67;;;1.80;;
52534;SDS011;38443;53.164;5.802;2022-08-01T15:22:31;8.30;;;2.15;;
52534;SDS011;38443;53.164;5.802;2022-08-01T15:24:58;4.80;;;2.10;;
52534;SDS011;38443;53.164;5.802;2022-08-01T15:27:26;4.45;;;1.98;;
52534;SDS011;38443;53.164;5.802;2022-08-01T15:29:53;5.60;;;1.80;;
52534;SDS011;38443;53.164;5.802;2022-08-01T15:32:19;7.38;;;2.03;;
52534;SDS011;38443;53.164;5.802;2022-08-01T15:34:44;4.25;;;2.00;;